createdAt,value
2023-04-04T00:01:05.536Z,8.31
2023-04-04T00:03:33.347Z,8.79
2023-04-04T00:06:01.289Z,8.66
2023-04-04T00:08:29.504Z,9.27
2023-04-04T00:10:59.089Z,9.47
2023-04-04T00:13:27.004Z,9.54
2023-04-04T00:15:54.848Z,9.59
2023-04-04T00:18:22.550Z,9.53
2023-04-04T00:20:50.363Z,9.70
2023-04-04T00:23:18.024Z,9.76
2023-04-04T00:25:51.727Z,9.66
2023-04-04T00:28:19.897Z,9.87
2023-04-04T00:30:48.085Z,10.13
2023-04-04T00:33:16.343Z,9.73
2023-04-04T00:35:44.249Z,9.61
2023-04-04T00:38:12.163Z,9.83
2023-04-04T00:40:44.100Z,9.84
2023-04-04T00:43:12.422Z,9.92
2023-04-04T00:45:40.224Z,9.56
2023-04-04T00:48:08.612Z,9.82
2023-04-04T00:50:37.098Z,9.59
2023-04-04T00:53:04.843Z,9.63
2023-04-04T00:55:32.665Z,9.92
2023-04-04T00:58:00.355Z,9.98
2023-04-04T01:00:28.264Z,10.00
2023-04-04T01:02:55.947Z,10.01
2023-04-04T01:05:23.726Z,10.00
2023-04-04T01:07:52.368Z,9.96
2023-04-04T01:10:20.112Z,9.91
2023-04-04T01:12:48.087Z,10.03
2023-04-04T01:15:17.493Z,9.68
2023-04-04T01:17:46.264Z,9.92
2023-04-04T01:20:20.660Z,9.96
2023-04-04T01:22:52.950Z,9.73
2023-04-04T01:25:38.898Z,9.34
2023-04-04T01:28:11.343Z,9.26
2023-04-04T01:30:39.591Z,9.22
2023-04-04T01:33:22.731Z,9.49
2023-04-04T01:36:18.405Z,9.52
2023-04-04T01:38:53.083Z,9.71
2023-04-04T01:41:21.583Z,9.78
2023-04-04T01:43:56.241Z,9.73
2023-04-04T01:46:25.374Z,9.63
2023-04-04T01:48:53.794Z,9.71
2023-04-04T01:51:26.119Z,9.77
2023-04-04T01:53:55.103Z,9.79
2023-04-04T01:56:23.046Z,9.60
2023-04-04T01:58:50.813Z,9.51
2023-04-04T02:01:18.632Z,9.39
2023-04-04T02:03:47.540Z,9.47
2023-04-04T02:06:15.285Z,9.57
2023-04-04T02:08:43.351Z,9.66
2023-04-04T02:11:12.390Z,9.59
2023-04-04T02:13:44.214Z,9.74
2023-04-04T02:16:15.515Z,9.67
2023-04-04T02:18:43.392Z,9.83
2023-04-04T02:21:11.265Z,9.78
2023-04-04T02:23:39.155Z,9.86
2023-04-04T02:26:06.925Z,9.83
2023-04-04T02:28:34.810Z,9.60
2023-04-04T02:31:02.714Z,9.70
2023-04-04T02:33:30.629Z,9.96
2023-04-04T02:36:00.928Z,9.66
2023-04-04T02:38:29.971Z,9.76
2023-04-04T02:40:57.679Z,9.62
2023-04-04T02:43:25.478Z,9.82
2023-04-04T02:45:54.332Z,9.53
2023-04-04T02:48:25.884Z,9.68
2023-04-04T02:50:57.001Z,9.67
2023-04-04T02:53:24.785Z,9.76
2023-04-04T02:55:55.921Z,9.85
2023-04-04T02:58:23.629Z,9.73
2023-04-04T03:00:55.745Z,9.68
2023-04-04T03:03:28.380Z,9.59
2023-04-04T03:05:56.708Z,9.87
2023-04-04T03:08:24.444Z,9.64
2023-04-04T03:10:52.195Z,9.72
2023-04-04T03:13:19.908Z,9.66
2023-04-04T03:15:47.920Z,9.91
2023-04-04T03:18:17.563Z,9.78
2023-04-04T03:20:46.122Z,9.55
2023-04-04T03:23:13.831Z,9.71
2023-04-04T03:25:41.586Z,9.85
2023-04-04T03:28:10.113Z,9.85
2023-04-04T03:30:38.273Z,9.86
2023-04-04T03:33:07.655Z,9.92
2023-04-04T03:35:39.751Z,9.90
2023-04-04T03:38:08.404Z,9.90
2023-04-04T03:40:36.579Z,9.90
2023-04-04T03:43:11.231Z,9.78
2023-04-04T03:45:39.596Z,9.91
2023-04-04T03:48:09.459Z,10.00
2023-04-04T03:50:39.017Z,10.00
2023-04-04T03:53:07.225Z,9.98
2023-04-04T03:55:35.053Z,9.96
2023-04-04T03:58:02.762Z,9.91
2023-04-04T04:00:30.671Z,9.93
2023-04-04T04:02:58.525Z,9.81
2023-04-04T04:05:26.242Z,9.74
2023-04-04T04:07:54.045Z,9.79
2023-04-04T04:10:21.735Z,9.71
2023-04-04T04:12:49.498Z,9.55
2023-04-04T04:15:17.244Z,9.80
2023-04-04T04:17:46.307Z,9.67
2023-04-04T04:20:14.449Z,9.62
2023-04-04T04:22:51.003Z,9.73
2023-04-04T04:25:20.443Z,9.73
2023-04-04T04:27:58.283Z,9.62
2023-04-04T04:30:27.477Z,9.59
2023-04-04T04:32:55.305Z,9.68
2023-04-04T04:35:28.863Z,9.66
2023-04-04T04:37:58.298Z,9.65
2023-04-04T04:40:26.768Z,9.45
2023-04-04T04:43:03.786Z,9.54
2023-04-04T04:45:32.004Z,9.72
2023-04-04T04:48:10.448Z,9.31
2023-04-04T04:50:46.084Z,9.50
2023-04-04T04:53:16.744Z,9.56
2023-04-04T04:55:46.919Z,9.63
2023-04-04T04:58:16.932Z,9.64
2023-04-04T05:00:48.698Z,9.59
2023-04-04T05:03:16.711Z,9.70
2023-04-04T05:05:49.516Z,9.73
2023-04-04T05:08:18.793Z,9.76
2023-04-04T05:11:03.952Z,9.70
2023-04-04T05:13:33.973Z,9.65
2023-04-04T05:16:03.555Z,9.79
2023-04-04T05:18:32.480Z,9.63
2023-04-04T05:21:00.652Z,9.63
2023-04-04T05:23:30.177Z,9.47
2023-04-04T05:25:58.171Z,9.30
2023-04-04T05:28:30.666Z,9.65
2023-04-04T05:31:02.208Z,9.66
2023-04-04T05:33:32.667Z,9.69
2023-04-04T05:36:23.721Z,9.56
2023-04-04T05:38:57.185Z,9.86
2023-04-04T05:41:30.579Z,9.39
2023-04-04T05:44:04.257Z,9.38
2023-04-04T05:46:33.080Z,9.67
2023-04-04T05:49:00.930Z,9.55
2023-04-04T05:51:30.640Z,9.03
2023-04-04T05:54:11.588Z,8.81
2023-04-04T05:56:40.807Z,8.88
2023-04-04T05:59:16.600Z,8.97
2023-04-04T06:01:54.764Z,8.87
2023-04-04T06:04:22.638Z,8.61
2023-04-04T06:06:50.672Z,8.79
2023-04-04T06:09:18.440Z,8.97
2023-04-04T06:11:46.157Z,8.37
2023-04-04T06:14:15.293Z,8.13
2023-04-04T06:16:44.452Z,7.77
2023-04-04T06:19:12.401Z,6.85
2023-04-04T06:21:40.099Z,6.64
2023-04-04T06:24:08.880Z,7.17
2023-04-04T06:26:36.604Z,6.90
2023-04-04T06:29:04.951Z,6.85
2023-04-04T06:31:35.837Z,6.42
2023-04-04T06:34:11.238Z,6.57
2023-04-04T06:36:59.936Z,6.84
2023-04-04T06:39:34.310Z,6.68
2023-04-04T06:42:06.137Z,6.54
2023-04-04T06:44:35.853Z,7.00
2023-04-04T06:47:03.702Z,7.36
2023-04-04T06:49:31.886Z,6.80
2023-04-04T06:52:00.229Z,7.48
2023-04-04T06:54:27.963Z,7.67
2023-04-04T06:56:55.781Z,7.93
2023-04-04T06:59:23.647Z,7.07
2023-04-04T07:01:51.369Z,7.45
2023-04-04T07:04:20.196Z,7.29
2023-04-04T07:06:47.920Z,7.36
2023-04-04T07:09:22.269Z,7.05
2023-04-04T07:11:56.291Z,7.19
2023-04-04T07:14:25.475Z,7.16
2023-04-04T07:16:53.786Z,7.22
2023-04-04T07:19:24.537Z,7.15
2023-04-04T07:21:52.346Z,7.25
2023-04-04T07:24:20.062Z,6.90
2023-04-04T07:26:47.821Z,7.61
2023-04-04T07:29:15.569Z,7.82
2023-04-04T07:31:43.418Z,7.36
2023-04-04T07:34:11.587Z,7.37
2023-04-04T07:36:39.253Z,7.35
2023-04-04T07:39:07.032Z,6.98
2023-04-04T07:41:35.755Z,7.35
2023-04-04T07:44:03.488Z,7.42
2023-04-04T07:46:31.452Z,7.24
2023-04-04T07:48:59.718Z,7.11
2023-04-04T07:51:31.441Z,7.65
2023-04-04T07:53:59.344Z,7.01
2023-04-04T07:56:27.177Z,7.50
2023-04-04T07:58:54.938Z,7.63
2023-04-04T08:01:22.755Z,7.66
2023-04-04T08:03:53.323Z,7.62
2023-04-04T08:06:21.485Z,7.90
2023-04-04T08:08:49.463Z,7.33
2023-04-04T08:11:17.537Z,6.99
2023-04-04T08:13:45.209Z,7.05
2023-04-04T08:16:13.206Z,7.37
2023-04-04T08:18:40.947Z,7.48
2023-04-04T08:21:09.059Z,7.37
2023-04-04T08:23:36.781Z,6.99
2023-04-04T08:26:04.509Z,6.85
2023-04-04T08:28:32.220Z,6.85
2023-04-04T08:31:00.020Z,7.37
2023-04-04T08:33:37.154Z,7.76
2023-04-04T08:36:12.363Z,7.10
2023-04-04T08:38:40.096Z,6.59
2023-04-04T08:41:07.908Z,6.62
2023-04-04T08:43:35.882Z,7.04
2023-04-04T08:46:04.253Z,7.16
2023-04-04T08:48:31.982Z,7.17
2023-04-04T08:51:00.007Z,7.24
2023-04-04T08:53:28.085Z,6.99
2023-04-04T08:55:55.822Z,6.50
2023-04-04T08:58:23.827Z,7.24
2023-04-04T09:00:55.083Z,7.62
2023-04-04T09:03:27.419Z,7.83
2023-04-04T09:05:55.571Z,7.89
2023-04-04T09:08:26.100Z,7.27
2023-04-04T09:10:53.893Z,6.62
2023-04-04T09:13:21.641Z,7.45
2023-04-04T09:15:51.384Z,6.71
2023-04-04T09:18:19.265Z,7.12
2023-04-04T09:20:47.664Z,6.98
2023-04-04T09:23:17.297Z,6.87
2023-04-04T09:28:25.589Z,6.35
2023-04-04T09:30:53.279Z,7.00
2023-04-04T09:33:24.741Z,6.81
2023-04-04T09:35:56.002Z,6.71
2023-04-04T09:38:24.164Z,6.52
2023-04-04T09:40:52.675Z,7.19
2023-04-04T09:43:22.426Z,7.23
2023-04-04T09:45:50.829Z,7.88
2023-04-04T09:48:28.986Z,7.14
2023-04-04T09:50:58.446Z,8.01
2023-04-04T09:53:26.419Z,7.99
2023-04-04T09:55:55.516Z,7.56
2023-04-04T09:58:27.965Z,6.90
2023-04-04T10:01:02.624Z,6.86
2023-04-04T10:03:30.629Z,6.93
2023-04-04T10:06:07.224Z,6.49
2023-04-04T10:08:35.696Z,7.03
2023-04-04T10:13:36.669Z,6.29
2023-04-04T10:16:04.776Z,7.07
2023-04-04T10:18:34.545Z,6.45
2023-04-04T10:23:38.552Z,6.36
2023-04-04T10:26:06.665Z,6.62
2023-04-04T10:28:34.598Z,6.20
2023-04-04T10:31:18.334Z,6.62
2023-04-04T10:34:04.776Z,6.77
2023-04-04T10:36:43.474Z,7.31
2023-04-04T10:39:14.942Z,7.76
2023-04-04T10:41:42.657Z,7.70
2023-04-04T10:44:15.259Z,7.53
2023-04-04T10:46:43.428Z,7.56
2023-04-04T10:49:11.731Z,7.87
2023-04-04T10:51:48.792Z,8.02
2023-04-04T10:54:23.308Z,7.21
2023-04-04T10:56:50.970Z,7.39
2023-04-04T10:59:18.726Z,6.75
2023-04-04T11:01:57.611Z,7.20
2023-04-04T11:04:44.957Z,6.91
2023-04-04T11:07:13.996Z,6.51
2023-04-04T11:09:49.117Z,7.25
2023-04-04T11:12:20.687Z,7.38
2023-04-04T11:15:15.056Z,6.18
2023-04-04T11:17:48.758Z,6.70
2023-04-04T11:20:21.385Z,6.46
2023-04-04T11:23:09.006Z,6.34
2023-04-04T11:25:41.770Z,6.25
2023-04-04T11:28:14.906Z,6.38
2023-04-04T11:30:50.215Z,6.42
2023-04-04T11:33:30.258Z,5.93
2023-04-04T11:36:06.947Z,5.96
2023-04-04T11:38:36.197Z,5.76
2023-04-04T11:41:03.980Z,5.74
2023-04-04T11:43:33.179Z,5.70
2023-04-04T11:46:09.109Z,6.04
2023-04-04T11:48:37.250Z,5.74
2023-04-04T11:51:05.131Z,6.19
2023-04-04T11:53:33.204Z,5.62
2023-04-04T11:56:01.694Z,5.80
2023-04-04T11:58:29.608Z,5.81
2023-04-04T12:00:57.300Z,6.32
2023-04-04T12:03:25.435Z,6.21
2023-04-04T12:05:53.230Z,6.56
2023-04-04T12:08:23.887Z,6.28
2023-04-04T12:10:51.656Z,6.08
2023-04-04T12:13:19.411Z,6.74
2023-04-04T12:15:47.802Z,6.26
2023-04-04T12:18:22.076Z,6.05
2023-04-04T12:20:52.887Z,6.02
2023-04-04T12:23:20.740Z,5.84
2023-04-04T12:25:53.605Z,5.42
2023-04-04T12:28:21.915Z,5.81
2023-04-04T12:30:49.630Z,5.91
2023-04-04T12:33:17.771Z,5.99
2023-04-04T12:35:53.048Z,5.67
2023-04-04T12:38:20.880Z,5.78
2023-04-04T12:40:48.577Z,5.87
2023-04-04T12:43:17.541Z,5.87
2023-04-04T12:45:45.263Z,5.18
2023-04-04T12:48:14.412Z,5.55
2023-04-04T12:51:00.721Z,5.20
2023-04-04T12:53:29.996Z,5.23
2023-04-04T12:56:03.137Z,5.32
2023-04-04T12:58:31.191Z,5.09
2023-04-04T13:00:59.937Z,4.91
2023-04-04T13:03:28.617Z,5.16
2023-04-04T13:05:57.946Z,5.22
2023-04-04T13:08:25.749Z,5.25
2023-04-04T13:11:05.193Z,5.62
2023-04-04T13:13:37.576Z,5.26
2023-04-04T13:16:09.795Z,5.49
2023-04-04T13:18:39.325Z,5.07
2023-04-04T13:21:07.951Z,4.87
2023-04-04T13:23:37.540Z,4.78
2023-04-04T13:26:06.521Z,4.29
2023-04-04T13:28:34.496Z,5.16
2023-04-04T13:31:06.574Z,5.43
2023-04-04T13:33:34.664Z,5.14
2023-04-04T13:36:02.422Z,5.15
2023-04-04T13:38:30.286Z,4.96
2023-04-04T13:40:58.154Z,5.55
2023-04-04T13:43:26.089Z,4.96
2023-04-04T13:45:55.554Z,6.19
2023-04-04T13:48:23.841Z,6.27
2023-04-04T13:50:52.998Z,5.56
2023-04-04T13:53:21.076Z,5.30
2023-04-04T13:58:20.545Z,5.18
2023-04-04T14:00:48.769Z,4.96
2023-04-04T14:03:16.966Z,5.16
2023-04-04T14:05:44.864Z,5.07
2023-04-04T14:08:12.602Z,4.98
2023-04-04T14:10:40.337Z,5.21
2023-04-04T14:13:08.012Z,5.66
2023-04-04T14:15:36.002Z,5.84
2023-04-04T14:18:03.986Z,4.78
2023-04-04T14:20:31.916Z,5.09
2023-04-04T14:23:00.055Z,5.56
2023-04-04T14:25:27.931Z,5.44
2023-04-04T14:27:55.722Z,5.05
2023-04-04T14:30:23.464Z,4.77
2023-04-04T14:32:52.195Z,4.76
2023-04-04T14:35:20.061Z,4.83
2023-04-04T14:37:49.171Z,5.42
2023-04-04T14:40:17.448Z,5.13
2023-04-04T14:42:45.107Z,4.97
2023-04-04T14:45:13.623Z,5.40
2023-04-04T14:47:41.546Z,5.03
2023-04-04T14:50:09.832Z,3.93
2023-04-04T14:52:37.541Z,4.05
2023-04-04T14:55:07.118Z,4.33
2023-04-04T14:57:39.326Z,5.38
2023-04-04T15:00:16.065Z,5.24
2023-04-04T15:02:43.852Z,4.32
2023-04-04T15:05:11.656Z,4.50
2023-04-04T15:07:39.360Z,4.80
2023-04-04T15:10:08.288Z,4.51
2023-04-04T15:12:36.080Z,4.79
2023-04-04T15:15:03.862Z,5.22
2023-04-04T15:17:31.740Z,5.64
2023-04-04T15:20:00.048Z,5.13
2023-04-04T15:22:27.867Z,4.19
2023-04-04T15:24:56.534Z,3.52
2023-04-04T15:27:24.178Z,3.53
2023-04-04T15:29:52.655Z,4.25
2023-04-04T15:32:20.711Z,4.38
2023-04-04T15:34:48.604Z,3.38
2023-04-04T15:37:16.983Z,3.99
2023-04-04T15:39:52.715Z,3.40
2023-04-04T15:42:21.680Z,3.75
2023-04-04T15:44:49.329Z,2.94
2023-04-04T15:47:17.117Z,3.17
2023-04-04T15:49:44.906Z,3.35
2023-04-04T15:52:12.691Z,2.60
2023-04-04T15:54:40.464Z,3.62
2023-04-04T15:57:08.121Z,3.53
2023-04-04T15:59:35.975Z,3.41
2023-04-04T16:02:06.572Z,3.78
2023-04-04T16:04:34.331Z,3.61
2023-04-04T16:07:02.011Z,2.59
2023-04-04T16:09:29.747Z,2.93
2023-04-04T16:11:57.555Z,2.98
2023-04-04T16:14:25.339Z,3.32
2023-04-04T16:16:53.041Z,3.17
2023-04-04T16:19:20.861Z,3.15
2023-04-04T16:21:49.299Z,3.38
2023-04-04T16:24:17.052Z,3.18
2023-04-04T16:26:47.193Z,3.19
2023-04-04T16:29:16.517Z,3.37
2023-04-04T16:31:44.340Z,3.23
2023-04-04T16:34:12.132Z,4.04
2023-04-04T16:36:39.895Z,4.56
2023-04-04T16:39:07.956Z,4.28
2023-04-04T16:41:40.732Z,3.19
2023-04-04T16:44:09.775Z,3.01
2023-04-04T16:46:37.638Z,2.80
2023-04-04T16:49:05.616Z,2.75
2023-04-04T16:51:33.481Z,3.63
2023-04-04T16:54:01.470Z,3.68
2023-04-04T16:56:30.843Z,3.83
2023-04-04T16:58:58.560Z,4.30
2023-04-04T17:01:26.746Z,3.73
2023-04-04T17:03:54.519Z,3.90
2023-04-04T17:06:22.275Z,3.90
2023-04-04T17:08:50.019Z,3.52
2023-04-04T17:11:17.928Z,4.52
2023-04-04T17:13:46.106Z,4.60
2023-04-04T17:16:13.908Z,4.30
2023-04-04T17:18:41.696Z,3.84
2023-04-04T17:21:09.453Z,4.03
2023-04-04T17:23:37.143Z,4.13
2023-04-04T17:26:04.957Z,3.59
2023-04-04T17:28:32.637Z,4.39
2023-04-04T17:31:00.469Z,4.16
2023-04-04T17:33:28.212Z,4.07
2023-04-04T17:35:55.939Z,4.01
2023-04-04T17:38:23.638Z,4.60
2023-04-04T17:40:52.812Z,4.83
2023-04-04T17:43:21.327Z,4.32
2023-04-04T17:45:49.127Z,4.53
2023-04-04T17:48:16.913Z,4.87
2023-04-04T17:50:44.691Z,4.67
2023-04-04T17:53:12.424Z,4.89
2023-04-04T17:55:40.838Z,5.13
2023-04-04T17:58:08.559Z,4.78
2023-04-04T18:00:36.951Z,4.58
2023-04-04T18:03:04.847Z,4.36
2023-04-04T18:05:33.131Z,4.93
2023-04-04T18:08:04.788Z,4.61
2023-04-04T18:10:32.660Z,4.30
2023-04-04T18:13:01.341Z,4.58
2023-04-04T18:15:29.505Z,4.03
2023-04-04T18:17:57.303Z,4.62
2023-04-04T18:20:34.415Z,4.77
2023-04-04T18:23:04.211Z,4.83
2023-04-04T18:25:32.572Z,4.63
2023-04-04T18:28:01.866Z,4.77
2023-04-04T18:30:29.679Z,4.82
2023-04-04T18:32:57.698Z,4.83
2023-04-04T18:35:25.508Z,4.92
2023-04-04T18:37:53.224Z,4.82
2023-04-04T18:40:21.089Z,4.34
2023-04-04T18:42:48.737Z,4.82
2023-04-04T18:45:18.307Z,4.99
2023-04-04T18:47:46.528Z,4.79
2023-04-04T18:50:14.471Z,4.71
2023-04-04T18:52:42.388Z,4.31
2023-04-04T18:55:10.745Z,4.74
2023-04-04T18:57:38.519Z,4.98
2023-04-04T19:00:08.159Z,4.81
2023-04-04T19:02:37.468Z,4.97
2023-04-04T19:05:05.980Z,5.06
2023-04-04T19:07:34.633Z,5.02
2023-04-04T19:10:06.659Z,5.16
2023-04-04T19:12:34.613Z,5.06
2023-04-04T19:15:03.045Z,4.60
2023-04-04T19:17:30.807Z,4.56
2023-04-04T19:19:58.651Z,4.46
2023-04-04T19:22:26.410Z,4.35
2023-04-04T19:24:54.127Z,4.74
2023-04-04T19:27:21.858Z,4.47
2023-04-04T19:29:49.597Z,4.75
2023-04-04T19:32:18.027Z,4.87
2023-04-04T19:34:46.299Z,4.81
2023-04-04T19:37:14.215Z,4.77
2023-04-04T19:39:42.249Z,4.92
2023-04-04T19:42:10.441Z,4.74
2023-04-04T19:44:41.328Z,4.83
2023-04-04T19:47:12.153Z,4.85
2023-04-04T19:49:39.934Z,4.82
2023-04-04T19:52:08.818Z,4.93
2023-04-04T19:54:41.478Z,4.77
2023-04-04T19:57:19.259Z,3.94
2023-04-04T20:00:17.721Z,3.92
2023-04-04T20:02:52.965Z,4.39
2023-04-04T20:05:46.663Z,4.09
2023-04-04T20:08:14.545Z,3.68
2023-04-04T20:10:42.681Z,2.51
2023-04-04T20:13:10.831Z,3.45
2023-04-04T20:15:44.544Z,3.03
2023-04-04T20:18:20.860Z,2.88
2023-04-04T20:21:01.335Z,2.71
2023-04-04T20:23:31.438Z,2.40
2023-04-04T20:26:09.536Z,2.59
2023-04-04T20:28:37.319Z,2.06
2023-04-04T20:31:11.686Z,3.11
2023-04-04T20:33:40.315Z,3.54
2023-04-04T20:36:20.343Z,3.65
2023-04-04T20:38:48.091Z,3.70
2023-04-04T20:41:17.139Z,4.12
2023-04-04T20:43:50.521Z,4.04
2023-04-04T20:46:22.575Z,3.68
2023-04-04T20:48:51.296Z,3.71
2023-04-04T20:51:29.017Z,3.94
2023-04-04T20:54:01.098Z,4.28
2023-04-04T20:56:53.019Z,3.34
2023-04-04T20:59:26.865Z,2.95
2023-04-04T21:01:55.672Z,3.05
2023-04-04T21:04:25.437Z,2.74
2023-04-04T21:06:53.391Z,3.36
2023-04-04T21:09:21.208Z,3.31
2023-04-04T21:11:48.944Z,3.53
2023-04-04T21:14:35.779Z,3.21
2023-04-04T21:17:05.060Z,3.54
2023-04-04T21:19:32.705Z,3.53
2023-04-04T21:22:00.518Z,2.92
2023-04-04T21:24:29.727Z,2.70
2023-04-04T21:26:57.466Z,2.46
2023-04-04T21:29:25.741Z,2.78
2023-04-04T21:31:54.607Z,2.99
2023-04-04T21:34:26.268Z,2.55
2023-04-04T21:37:00.371Z,2.26
2023-04-04T21:39:29.731Z,1.45
2023-04-04T21:41:59.113Z,1.76
2023-04-04T21:44:27.035Z,2.52
2023-04-04T21:46:55.557Z,2.57
2023-04-04T21:49:23.912Z,2.24
2023-04-04T21:51:51.587Z,2.35
2023-04-04T21:54:19.427Z,2.15
2023-04-04T21:56:47.196Z,2.23
2023-04-04T21:59:14.992Z,1.72
2023-04-04T22:01:42.814Z,1.58
2023-04-04T22:04:10.657Z,2.55
2023-04-04T22:06:38.360Z,2.70
2023-04-04T22:09:06.656Z,3.02
2023-04-04T22:11:35.054Z,3.07
2023-04-04T22:14:07.432Z,3.35
2023-04-04T22:16:43.039Z,3.73
2023-04-04T22:19:11.503Z,3.61
2023-04-04T22:21:46.783Z,3.66
2023-04-04T22:24:15.692Z,3.54
2023-04-04T22:26:45.834Z,3.81
2023-04-04T22:29:13.781Z,3.73
2023-04-04T22:31:41.673Z,3.75
2023-04-04T22:34:09.988Z,3.79
2023-04-04T22:36:39.347Z,3.08
2023-04-04T22:39:07.324Z,3.65
2023-04-04T22:41:35.037Z,3.64
2023-04-04T22:44:02.775Z,3.40
2023-04-04T22:46:31.425Z,3.73
2023-04-04T22:49:06.345Z,3.44
2023-04-04T22:51:43.178Z,3.09
2023-04-04T22:54:13.127Z,3.37
2023-04-04T22:56:40.955Z,3.50
2023-04-04T22:59:08.825Z,3.42
2023-04-04T23:01:36.653Z,3.12
2023-04-04T23:04:04.473Z,2.94
2023-04-04T23:06:32.550Z,3.39
2023-04-04T23:09:01.863Z,2.99
2023-04-04T23:11:29.914Z,3.25
2023-04-04T23:13:57.882Z,2.95
2023-04-04T23:16:26.378Z,2.91
2023-04-04T23:18:54.393Z,3.05
2023-04-04T23:21:22.392Z,3.19
2023-04-04T23:23:50.942Z,3.53
2023-04-04T23:26:18.627Z,3.16
2023-04-04T23:28:46.400Z,2.38
2023-04-04T23:31:14.931Z,2.76
2023-04-04T23:33:43.305Z,2.71
2023-04-04T23:36:11.052Z,2.50
2023-04-04T23:38:38.821Z,2.38
2023-04-04T23:41:06.590Z,2.35
2023-04-04T23:43:35.975Z,2.29
2023-04-04T23:46:03.871Z,2.62
2023-04-04T23:48:32.270Z,2.48
2023-04-04T23:51:01.761Z,2.67
2023-04-04T23:53:29.818Z,2.65
2023-04-04T23:55:57.580Z,3.04
2023-04-04T23:58:25.318Z,3.14
